createdAt,value
2022-08-28T00:01:57.684Z,21.36
2022-08-28T00:04:24.589Z,21.35
2022-08-28T00:06:51.534Z,21.31
2022-08-28T00:09:18.395Z,21.28
2022-08-28T00:11:45.577Z,21.28
2022-08-28T00:14:12.755Z,21.27
2022-08-28T00:16:39.720Z,21.25
2022-08-28T00:19:06.886Z,21.24
2022-08-28T00:21:34.032Z,21.21
2022-08-28T00:24:01.027Z,21.16
2022-08-28T00:26:46.609Z,21.13
2022-08-28T00:29:13.608Z,21.07
2022-08-28T00:31:40.564Z,21.02
2022-08-28T00:34:07.959Z,21.00
2022-08-28T00:36:45.627Z,20.98
2022-08-28T00:39:12.620Z,20.98
2022-08-28T00:41:41.194Z,20.97
2022-08-28T00:44:16.240Z,20.97
2022-08-28T00:46:44.491Z,20.97
2022-08-28T00:49:12.086Z,20.96
2022-08-28T00:51:57.921Z,20.95
2022-08-28T00:54:25.112Z,20.95
2022-08-28T00:56:53.521Z,20.93
2022-08-28T00:59:21.450Z,20.92
2022-08-28T01:01:48.625Z,20.92
2022-08-28T01:04:20.968Z,20.91
2022-08-28T01:06:48.801Z,20.89
2022-08-28T01:09:15.816Z,20.86
2022-08-28T01:11:48.242Z,20.85
2022-08-28T01:14:15.297Z,20.82
2022-08-28T01:16:42.935Z,20.82
2022-08-28T01:19:13.477Z,20.78
2022-08-28T01:21:45.227Z,20.76
2022-08-28T01:24:14.901Z,20.71
2022-08-28T01:26:42.184Z,20.66
2022-08-28T01:29:09.290Z,20.63
2022-08-28T01:31:38.910Z,20.61
2022-08-28T01:34:06.229Z,20.59
2022-08-28T01:36:33.868Z,20.58
2022-08-28T01:39:05.649Z,20.55
2022-08-28T01:41:33.643Z,20.54
2022-08-28T01:44:00.828Z,20.51
2022-08-28T01:46:28.281Z,20.50
2022-08-28T01:48:55.343Z,20.50
2022-08-28T01:51:24.582Z,20.52
2022-08-28T01:53:52.297Z,20.52
2022-08-28T01:56:19.316Z,20.52
2022-08-28T01:58:48.217Z,20.55
2022-08-28T02:01:19.431Z,20.54
2022-08-28T02:03:46.902Z,20.53
2022-08-28T02:06:14.241Z,20.55
2022-08-28T02:08:41.182Z,20.53
2022-08-28T02:11:09.034Z,20.51
2022-08-28T02:13:36.844Z,20.48
2022-08-28T02:16:05.020Z,20.49
2022-08-28T02:18:32.075Z,20.50
2022-08-28T02:20:59.581Z,20.50
2022-08-28T02:23:26.520Z,20.49
2022-08-28T02:25:53.500Z,20.49
2022-08-28T02:28:20.380Z,20.47
2022-08-28T02:30:47.300Z,20.45
2022-08-28T02:33:14.958Z,20.43
2022-08-28T02:35:42.644Z,20.43
2022-08-28T02:38:10.528Z,20.46
2022-08-28T02:40:38.672Z,20.46
2022-08-28T02:43:05.968Z,20.45
2022-08-28T02:45:33.379Z,20.47
2022-08-28T02:48:01.728Z,20.46
2022-08-28T02:50:29.989Z,20.45
2022-08-28T02:52:57.202Z,20.42
2022-08-28T02:55:24.872Z,20.41
2022-08-28T02:57:52.897Z,20.38
2022-08-28T03:00:21.010Z,20.37
2022-08-28T03:02:48.126Z,20.37
2022-08-28T03:05:16.304Z,20.35
2022-08-28T03:07:43.208Z,20.37
2022-08-28T03:10:10.353Z,20.34
2022-08-28T03:12:38.543Z,20.32
2022-08-28T03:15:06.257Z,20.28
2022-08-28T03:17:33.108Z,20.25
2022-08-28T03:20:00.562Z,20.24
2022-08-28T03:22:45.906Z,20.21
2022-08-28T03:25:13.916Z,20.19
2022-08-28T03:27:40.762Z,20.20
2022-08-28T03:30:08.037Z,20.18
2022-08-28T03:32:40.011Z,20.20
2022-08-28T03:35:07.291Z,20.23
2022-08-28T03:37:34.131Z,20.25
2022-08-28T03:40:01.016Z,20.28
2022-08-28T03:42:29.512Z,20.27
2022-08-28T03:44:58.407Z,20.30
2022-08-28T03:47:25.337Z,20.34
2022-08-28T03:49:56.575Z,20.38
2022-08-28T03:52:23.672Z,20.41
2022-08-28T03:54:50.872Z,20.40
2022-08-28T03:57:21.679Z,20.43
2022-08-28T03:59:48.940Z,20.46
2022-08-28T04:02:19.160Z,20.49
2022-08-28T04:04:48.296Z,20.54
2022-08-28T04:07:15.121Z,20.59
2022-08-28T04:09:42.028Z,20.60
2022-08-28T04:12:08.992Z,20.54
2022-08-28T04:14:36.222Z,20.63
2022-08-28T04:17:03.460Z,20.65
2022-08-28T04:19:30.508Z,20.64
2022-08-28T04:21:57.436Z,20.68
2022-08-28T04:24:24.578Z,20.71
2022-08-28T04:26:51.726Z,20.78
2022-08-28T04:29:18.675Z,20.84
2022-08-28T04:31:45.680Z,20.85
2022-08-28T04:34:12.727Z,20.83
2022-08-28T04:36:39.667Z,20.85
2022-08-28T04:39:08.739Z,20.86
2022-08-28T04:41:37.713Z,20.89
2022-08-28T04:44:05.569Z,20.90
2022-08-28T04:46:32.540Z,20.90
2022-08-28T04:48:59.608Z,20.86
2022-08-28T04:51:26.541Z,20.86
2022-08-28T04:53:53.571Z,20.84
2022-08-28T04:56:20.441Z,20.82
2022-08-28T04:58:47.801Z,20.78
2022-08-28T05:01:18.927Z,20.74
2022-08-28T05:03:53.398Z,20.73
2022-08-28T05:06:21.867Z,20.71
2022-08-28T05:08:48.750Z,20.67
2022-08-28T05:11:32.847Z,20.63
2022-08-28T05:14:04.748Z,20.65
2022-08-28T05:16:39.975Z,20.62
2022-08-28T05:19:07.406Z,20.66
2022-08-28T05:21:37.570Z,20.69
2022-08-28T05:24:04.772Z,20.74
2022-08-28T05:26:31.702Z,20.74
2022-08-28T05:29:00.282Z,20.72
2022-08-28T05:31:37.270Z,20.74
2022-08-28T05:34:04.777Z,20.76
2022-08-28T05:36:35.214Z,20.80
2022-08-28T05:39:03.087Z,20.84
2022-08-28T05:41:30.497Z,20.87
2022-08-28T05:43:58.000Z,20.92
2022-08-28T05:46:28.361Z,20.93
2022-08-28T05:48:55.706Z,20.93
2022-08-28T05:51:23.785Z,20.96
2022-08-28T05:53:51.808Z,21.03
2022-08-28T05:56:25.783Z,21.17
2022-08-28T05:58:56.355Z,21.50
2022-08-28T06:01:24.420Z,21.82
2022-08-28T06:03:55.256Z,22.02
2022-08-28T06:06:23.347Z,22.23
2022-08-28T06:08:58.250Z,22.45
2022-08-28T06:11:26.991Z,22.66
2022-08-28T06:14:04.576Z,22.87
2022-08-28T06:16:32.198Z,23.18
2022-08-28T06:18:59.349Z,23.41
2022-08-28T06:21:26.374Z,23.54
2022-08-28T06:23:53.327Z,23.70
2022-08-28T06:26:20.354Z,23.97
2022-08-28T06:28:47.210Z,24.30
2022-08-28T06:31:24.367Z,24.56
2022-08-28T06:33:54.240Z,24.68
2022-08-28T06:36:21.707Z,24.68
2022-08-28T06:38:48.610Z,24.83
2022-08-28T06:41:15.759Z,24.93
2022-08-28T06:43:42.883Z,25.04
2022-08-28T06:46:10.016Z,25.14
2022-08-28T06:48:37.007Z,25.14
2022-08-28T06:51:06.335Z,25.18
2022-08-28T06:53:33.683Z,25.17
2022-08-28T06:56:07.817Z,25.34
2022-08-28T06:58:38.818Z,25.37
2022-08-28T07:01:29.759Z,25.48
2022-08-28T07:04:01.780Z,25.65
2022-08-28T07:06:31.252Z,25.61
2022-08-28T07:08:58.215Z,25.50
2022-08-28T07:11:26.594Z,25.44
2022-08-28T07:13:54.147Z,25.49
2022-08-28T07:16:22.411Z,25.42
2022-08-28T07:18:54.428Z,25.36
2022-08-28T07:21:21.841Z,25.38
2022-08-28T07:23:48.803Z,25.37
2022-08-28T07:26:18.077Z,25.27
2022-08-28T07:28:46.006Z,25.32
2022-08-28T07:31:14.519Z,25.32
2022-08-28T07:33:41.918Z,25.28
2022-08-28T07:36:15.999Z,25.26
2022-08-28T07:38:56.244Z,25.34
2022-08-28T07:41:24.562Z,25.36
2022-08-28T07:44:11.381Z,25.56
2022-08-28T07:46:38.971Z,25.67
2022-08-28T07:49:12.692Z,25.77
2022-08-28T07:51:43.544Z,25.87
2022-08-28T07:54:17.736Z,26.05
2022-08-28T07:56:46.950Z,26.25
2022-08-28T07:59:19.406Z,26.33
2022-08-28T08:01:53.294Z,26.52
2022-08-28T08:04:53.099Z,26.73
2022-08-28T08:07:22.498Z,26.96
2022-08-28T08:09:52.854Z,27.09
2022-08-28T08:12:20.647Z,27.17
2022-08-28T08:14:49.963Z,27.31
2022-08-28T08:17:19.276Z,27.58
2022-08-28T08:19:49.167Z,27.90
2022-08-28T08:22:18.209Z,27.99
2022-08-28T08:24:45.234Z,28.28
2022-08-28T08:27:12.221Z,28.64
2022-08-28T08:29:39.647Z,28.74
2022-08-28T08:32:11.063Z,28.91
2022-08-28T08:34:41.590Z,29.10
2022-08-28T08:37:10.457Z,29.45
2022-08-28T08:39:37.957Z,29.79
2022-08-28T08:42:13.316Z,30.12
2022-08-28T08:44:42.104Z,30.46
2022-08-28T08:47:30.775Z,30.42
2022-08-28T08:49:58.993Z,30.47
2022-08-28T08:52:26.831Z,30.56
2022-08-28T08:55:17.482Z,30.71
2022-08-28T08:57:50.761Z,30.74
2022-08-28T09:00:20.397Z,30.98
2022-08-28T09:02:53.732Z,31.16
2022-08-28T09:05:24.624Z,31.24
2022-08-28T09:07:59.031Z,31.27
2022-08-28T09:10:29.336Z,31.27
2022-08-28T09:13:13.933Z,31.09
2022-08-28T09:15:50.494Z,30.89
2022-08-28T09:20:59.187Z,30.78
2022-08-28T09:23:27.179Z,30.98
2022-08-28T09:26:14.465Z,31.23
2022-08-28T09:28:50.886Z,31.24
2022-08-28T09:31:31.930Z,31.49
2022-08-28T09:34:17.344Z,32.03
2022-08-28T09:36:44.448Z,32.38
2022-08-28T09:39:18.024Z,32.58
2022-08-28T09:42:27.277Z,32.80
2022-08-28T09:45:13.700Z,33.11
2022-08-28T09:47:46.160Z,33.33
2022-08-28T09:50:21.835Z,33.63
2022-08-28T09:52:49.361Z,34.21
2022-08-28T09:55:27.740Z,34.57
2022-08-28T09:58:02.311Z,35.00
2022-08-28T10:00:40.072Z,35.20
2022-08-28T10:03:15.953Z,35.85
2022-08-28T10:05:59.440Z,35.99
2022-08-28T10:08:30.774Z,36.08
2022-08-28T10:11:01.073Z,36.45
2022-08-28T10:13:40.653Z,36.97
2022-08-28T10:16:27.378Z,37.52
2022-08-28T10:19:06.466Z,36.89
2022-08-28T10:21:42.886Z,35.66
2022-08-28T10:24:40.443Z,35.26
2022-08-28T10:27:33.502Z,35.46
2022-08-28T10:30:13.357Z,35.56
2022-08-28T10:32:40.677Z,35.11
2022-08-28T10:35:12.249Z,35.41
2022-08-28T10:37:39.322Z,35.10
2022-08-28T10:40:42.283Z,34.93
2022-08-28T10:43:35.358Z,35.68
2022-08-28T10:46:05.526Z,36.16
2022-08-28T10:48:59.596Z,35.59
2022-08-28T10:51:34.856Z,36.99
2022-08-28T10:54:04.382Z,37.70
2022-08-28T10:56:35.168Z,37.15
2022-08-28T10:59:02.469Z,36.05
2022-08-28T11:01:30.408Z,35.39
2022-08-28T11:03:59.558Z,34.46
2022-08-28T11:06:34.742Z,33.71
2022-08-28T11:09:23.887Z,33.17
2022-08-28T11:12:01.099Z,32.77
2022-08-28T11:14:47.920Z,32.57
2022-08-28T11:17:28.463Z,32.21
2022-08-28T11:20:13.793Z,31.86
2022-08-28T11:22:44.007Z,31.61
2022-08-28T11:25:17.891Z,31.59
2022-08-28T11:28:15.183Z,31.59
2022-08-28T11:30:47.142Z,31.59
2022-08-28T11:33:36.184Z,31.62
2022-08-28T11:36:20.384Z,31.65
2022-08-28T11:38:56.739Z,31.69
2022-08-28T11:41:27.690Z,31.71
2022-08-28T11:44:09.991Z,31.83
2022-08-28T11:46:40.238Z,32.01
2022-08-28T11:49:29.788Z,32.21
2022-08-28T11:52:16.707Z,33.39
2022-08-28T11:55:14.598Z,33.27
2022-08-28T12:00:52.242Z,32.97
2022-08-28T12:03:31.786Z,32.86
2022-08-28T12:06:04.612Z,32.68
2022-08-28T12:08:53.452Z,32.17
2022-08-28T12:11:42.191Z,31.74
2022-08-28T12:14:39.518Z,31.75
2022-08-28T12:20:33.500Z,31.85
2022-08-28T12:23:32.090Z,32.10
2022-08-28T12:26:32.394Z,32.37
2022-08-28T12:29:02.034Z,32.48
2022-08-28T12:31:52.591Z,32.74
2022-08-28T12:34:46.546Z,32.68
2022-08-28T12:37:52.746Z,32.71
2022-08-28T12:40:47.602Z,32.69
2022-08-28T12:43:20.524Z,32.69
2022-08-28T12:45:52.333Z,32.91
2022-08-28T12:48:27.692Z,32.67
2022-08-28T12:51:14.817Z,32.86
2022-08-28T12:53:44.679Z,33.06
2022-08-28T12:56:15.454Z,33.13
2022-08-28T12:58:51.627Z,33.20
2022-08-28T13:01:21.384Z,33.00
2022-08-28T13:04:03.821Z,32.91
2022-08-28T13:06:31.700Z,32.75
2022-08-28T13:09:06.043Z,32.50
2022-08-28T13:11:34.818Z,32.57
2022-08-28T13:14:04.141Z,32.56
2022-08-28T13:16:37.891Z,32.64
2022-08-28T13:19:07.124Z,33.06
2022-08-28T13:21:38.017Z,33.55
2022-08-28T13:24:26.423Z,33.63
2022-08-28T13:27:22.822Z,33.40
2022-08-28T13:30:00.117Z,33.20
2022-08-28T13:32:32.947Z,33.16
2022-08-28T13:35:06.487Z,33.07
2022-08-28T13:37:53.488Z,32.96
2022-08-28T13:40:56.234Z,32.83
2022-08-28T13:43:21.323Z,32.74
2022-08-28T13:45:54.393Z,32.77
2022-08-28T13:48:25.450Z,32.52
2022-08-28T13:50:57.384Z,32.30
2022-08-28T13:53:25.881Z,32.13
2022-08-28T13:55:54.236Z,31.80
2022-08-28T13:58:24.911Z,31.60
2022-08-28T14:01:00.251Z,31.44
2022-08-28T14:03:36.070Z,31.25
2022-08-28T14:06:09.717Z,31.00
2022-08-28T14:08:49.760Z,30.78
2022-08-28T14:11:17.426Z,30.62
2022-08-28T14:13:55.798Z,30.54
2022-08-28T14:16:26.695Z,30.61
2022-08-28T14:18:57.511Z,31.07
2022-08-28T14:21:29.157Z,31.23
2022-08-28T14:24:02.887Z,31.66
2022-08-28T14:26:30.485Z,31.50
2022-08-28T14:29:01.188Z,31.28
2022-08-28T14:31:41.558Z,30.98
2022-08-28T14:34:16.852Z,30.71
2022-08-28T14:36:53.050Z,30.43
2022-08-28T14:39:20.072Z,30.22
2022-08-28T14:41:47.410Z,29.99
2022-08-28T14:44:15.096Z,29.81
2022-08-28T14:46:51.811Z,29.60
2022-08-28T14:49:27.729Z,29.42
2022-08-28T14:51:55.125Z,29.23
2022-08-28T14:54:22.999Z,29.11
2022-08-28T14:56:56.225Z,29.02
2022-08-28T15:02:13.777Z,28.79
2022-08-28T15:04:40.906Z,28.68
2022-08-28T15:07:14.853Z,28.57
2022-08-28T15:09:44.606Z,28.49
2022-08-28T15:12:12.909Z,28.42
2022-08-28T15:14:55.105Z,28.36
2022-08-28T15:17:34.107Z,28.37
2022-08-28T15:20:02.168Z,28.38
2022-08-28T15:22:32.057Z,28.40
2022-08-28T15:24:59.040Z,28.41
2022-08-28T15:27:29.906Z,28.33
2022-08-28T15:30:00.245Z,28.18
2022-08-28T15:32:35.619Z,28.07
2022-08-28T15:35:11.676Z,27.94
2022-08-28T15:37:41.333Z,27.81
2022-08-28T15:40:50.853Z,27.69
2022-08-28T15:47:13.952Z,27.39
2022-08-28T15:49:49.642Z,27.29
2022-08-28T15:52:30.177Z,27.18
2022-08-28T15:55:03.394Z,27.08
2022-08-28T15:57:32.924Z,27.00
2022-08-28T16:00:02.704Z,26.93
2022-08-28T16:02:32.044Z,26.85
2022-08-28T16:04:58.967Z,26.78
2022-08-28T16:10:28.395Z,26.65
2022-08-28T16:13:01.170Z,26.56
2022-08-28T16:16:18.159Z,26.43
2022-08-28T16:19:12.146Z,26.31
2022-08-28T16:21:47.228Z,26.21
2022-08-28T16:24:38.567Z,26.14
2022-08-28T16:27:21.604Z,26.08
2022-08-28T16:29:52.929Z,26.04
2022-08-28T16:35:07.433Z,25.98
2022-08-28T16:37:40.088Z,25.93
2022-08-28T16:40:08.179Z,25.88
2022-08-28T16:42:38.116Z,25.82
2022-08-28T16:45:17.778Z,25.76
2022-08-28T17:01:53.711Z,25.57
2022-08-28T17:08:14.297Z,25.50
2022-08-28T17:10:41.617Z,25.48
2022-08-28T17:13:22.729Z,25.45
2022-08-28T17:16:07.119Z,25.38
2022-08-28T17:19:02.439Z,25.33
2022-08-28T17:22:03.871Z,25.28
2022-08-28T17:24:35.344Z,25.27
2022-08-28T17:27:08.846Z,25.20
2022-08-28T17:29:36.500Z,25.20
2022-08-28T17:32:08.839Z,25.16
2022-08-28T17:34:45.138Z,25.14
2022-08-28T17:37:25.159Z,25.09
2022-08-28T17:40:09.584Z,25.06
2022-08-28T17:43:27.248Z,25.01
2022-08-28T17:46:11.644Z,25.00
2022-08-28T17:48:54.334Z,24.95
2022-08-28T17:51:42.431Z,24.92
2022-08-28T17:54:24.387Z,24.86
2022-08-28T17:56:56.759Z,24.83
2022-08-28T17:59:35.570Z,24.78
2022-08-28T18:02:02.761Z,24.71
2022-08-28T18:04:29.774Z,24.71
2022-08-28T18:06:57.976Z,24.67
2022-08-28T18:09:25.006Z,24.68
2022-08-28T18:11:54.411Z,24.69
2022-08-28T18:14:31.946Z,24.72
2022-08-28T18:17:01.678Z,24.73
2022-08-28T18:19:31.483Z,24.70
2022-08-28T18:21:58.886Z,24.68
2022-08-28T18:24:25.873Z,24.63
2022-08-28T18:27:05.347Z,24.60
2022-08-28T18:29:34.599Z,24.58
2022-08-28T18:32:02.117Z,24.53
2022-08-28T18:34:39.633Z,24.50
2022-08-28T18:37:10.121Z,24.47
2022-08-28T18:39:37.998Z,24.49
2022-08-28T18:42:07.706Z,24.50
2022-08-28T18:44:38.155Z,24.46
2022-08-28T18:47:16.660Z,24.48
2022-08-28T18:49:49.402Z,24.45
2022-08-28T18:52:16.505Z,24.41
2022-08-28T18:54:43.447Z,24.37
2022-08-28T18:57:12.695Z,24.32
2022-08-28T18:59:39.663Z,24.31
2022-08-28T19:02:07.593Z,24.29
2022-08-28T19:04:34.842Z,24.29
2022-08-28T19:07:01.866Z,24.26
2022-08-28T19:09:32.318Z,24.27
2022-08-28T19:12:00.012Z,24.25
2022-08-28T19:14:29.979Z,24.19
2022-08-28T19:16:57.442Z,24.16
2022-08-28T19:19:24.381Z,24.17
2022-08-28T19:21:51.559Z,24.10
2022-08-28T19:24:21.061Z,24.05
2022-08-28T19:26:48.867Z,24.03
2022-08-28T19:29:16.435Z,24.01
2022-08-28T19:31:46.475Z,23.97
2022-08-28T19:34:14.468Z,23.89
2022-08-28T19:36:42.044Z,23.84
2022-08-28T19:39:08.977Z,23.84
2022-08-28T19:41:36.933Z,23.76
2022-08-28T19:44:04.748Z,23.76
2022-08-28T19:46:39.345Z,23.68
2022-08-28T19:49:09.193Z,23.59
2022-08-28T19:51:37.113Z,23.54
2022-08-28T19:54:10.403Z,23.45
2022-08-28T19:56:41.714Z,23.37
2022-08-28T19:59:11.098Z,23.30
2022-08-28T20:01:39.723Z,23.25
2022-08-28T20:04:10.037Z,23.19
2022-08-28T20:06:37.194Z,23.11
2022-08-28T20:09:04.537Z,23.10
2022-08-28T20:11:31.567Z,23.07
2022-08-28T20:13:59.289Z,23.03
2022-08-28T20:16:27.952Z,23.04
2022-08-28T20:21:38.394Z,22.99
2022-08-28T20:24:21.117Z,23.00
2022-08-28T20:26:51.203Z,22.92
2022-08-28T20:29:18.446Z,22.85
2022-08-28T20:31:49.741Z,22.78
2022-08-28T20:34:20.163Z,22.65
2022-08-28T20:36:50.384Z,22.51
2022-08-28T20:39:17.705Z,22.48
2022-08-28T20:41:44.858Z,22.39
2022-08-28T20:44:15.588Z,22.34
2022-08-28T20:46:51.630Z,22.28
2022-08-28T20:49:24.055Z,22.23
2022-08-28T20:51:54.677Z,22.21
2022-08-28T20:54:25.244Z,22.17
2022-08-28T20:56:53.793Z,22.15
2022-08-28T20:59:21.029Z,22.11
2022-08-28T21:01:49.834Z,22.07
2022-08-28T21:04:22.390Z,22.01
2022-08-28T21:06:52.324Z,21.97
2022-08-28T21:09:19.504Z,21.92
2022-08-28T21:11:49.620Z,21.86
2022-08-28T21:14:22.888Z,21.82
2022-08-28T21:17:14.021Z,21.72
2022-08-28T21:19:53.746Z,21.62
2022-08-28T21:22:24.106Z,21.58
2022-08-28T21:24:51.365Z,21.52
2022-08-28T21:27:20.259Z,21.46
2022-08-28T21:29:48.576Z,21.40
2022-08-28T21:32:17.898Z,21.30
2022-08-28T21:34:53.983Z,21.21
2022-08-28T21:37:23.727Z,21.09
2022-08-28T21:39:56.294Z,20.95
2022-08-28T21:42:24.051Z,20.86
2022-08-28T21:44:58.765Z,20.80
2022-08-28T21:47:33.718Z,20.73
2022-08-28T21:50:02.613Z,20.70
2022-08-28T21:52:36.081Z,20.69
2022-08-28T21:55:05.322Z,20.64
2022-08-28T21:57:32.339Z,20.61
2022-08-28T21:59:59.377Z,20.56
2022-08-28T22:02:27.005Z,20.55
2022-08-28T22:04:53.942Z,20.47
2022-08-28T22:07:20.800Z,20.45
2022-08-28T22:09:47.740Z,20.41
2022-08-28T22:12:15.528Z,20.36
2022-08-28T22:14:42.483Z,20.32
2022-08-28T22:17:11.925Z,20.30
2022-08-28T22:19:39.284Z,20.22
2022-08-28T22:22:24.579Z,20.18
2022-08-28T22:24:52.617Z,20.12
2022-08-28T22:27:19.564Z,20.09
2022-08-28T22:29:47.102Z,20.06
2022-08-28T22:32:14.072Z,20.01
2022-08-28T22:34:42.577Z,20.02
2022-08-28T22:37:11.639Z,20.03
2022-08-28T22:39:41.997Z,19.98
2022-08-28T22:42:09.386Z,19.95
2022-08-28T22:44:36.955Z,19.95
2022-08-28T22:47:04.004Z,19.87
2022-08-28T22:49:30.883Z,19.86
2022-08-28T22:51:57.806Z,19.86
2022-08-28T22:54:25.122Z,19.81
2022-08-28T22:56:52.094Z,19.77
2022-08-28T22:59:19.608Z,19.73
2022-08-28T23:01:46.644Z,19.65
2022-08-28T23:04:13.674Z,19.62
2022-08-28T23:06:41.197Z,19.57
2022-08-28T23:09:08.380Z,19.54
2022-08-28T23:11:36.600Z,19.49
2022-08-28T23:14:04.264Z,19.52
2022-08-28T23:16:31.443Z,19.50
2022-08-28T23:19:14.133Z,19.47
2022-08-28T23:21:43.797Z,19.48
2022-08-28T23:24:16.224Z,19.47
2022-08-28T23:26:43.999Z,19.40
2022-08-28T23:29:10.984Z,19.39
2022-08-28T23:31:38.118Z,19.36
2022-08-28T23:34:05.255Z,19.33
2022-08-28T23:36:32.449Z,19.29
2022-08-28T23:39:02.450Z,19.24
2022-08-28T23:41:29.283Z,19.23
2022-08-28T23:43:57.532Z,19.19
2022-08-28T23:46:25.015Z,19.18
2022-08-28T23:48:52.694Z,19.14
2022-08-28T23:51:19.699Z,19.11
2022-08-28T23:53:46.607Z,19.07
2022-08-28T23:56:14.716Z,19.09
2022-08-28T23:58:43.195Z,19.10
